createdAt,value
2023-11-23T00:01:40.018Z,-0.89
2023-11-23T00:04:12.047Z,-0.90
2023-11-23T00:06:42.315Z,-0.86
2023-11-23T00:09:10.819Z,-0.93
2023-11-23T00:11:39.045Z,-1.04
2023-11-23T00:14:09.049Z,-1.00
2023-11-23T00:16:37.778Z,-0.99
2023-11-23T00:19:07.654Z,-1.00
2023-11-23T00:21:36.749Z,-1.08
2023-11-23T00:24:08.125Z,-1.21
2023-11-23T00:26:36.789Z,-1.11
2023-11-23T00:29:07.653Z,-1.25
2023-11-23T00:31:36.245Z,-1.14
2023-11-23T00:34:06.898Z,-1.25
2023-11-23T00:36:39.252Z,-1.28
2023-11-23T00:39:14.568Z,-1.21
2023-11-23T00:41:44.775Z,-1.32
2023-11-23T00:44:13.306Z,-1.25
2023-11-23T00:46:43.778Z,-1.31
2023-11-23T00:49:12.807Z,-1.25
2023-11-23T00:51:41.345Z,-1.32
2023-11-23T00:54:14.251Z,-1.31
2023-11-23T00:56:42.847Z,-1.32
2023-11-23T00:59:11.834Z,-1.27
2023-11-23T01:01:40.946Z,-1.30
2023-11-23T01:04:10.149Z,-1.34
2023-11-23T01:06:39.109Z,-1.30
2023-11-23T01:09:11.489Z,-1.31
2023-11-23T01:11:40.129Z,-1.21
2023-11-23T01:14:09.756Z,-1.13
2023-11-23T01:16:38.887Z,-1.05
2023-11-23T01:19:07.553Z,-1.00
2023-11-23T01:21:37.838Z,-1.04
2023-11-23T01:24:09.416Z,-1.14
2023-11-23T01:26:40.512Z,-1.20
2023-11-23T01:29:10.120Z,-1.21
2023-11-23T01:31:39.237Z,-1.18
2023-11-23T01:34:07.944Z,-1.24
2023-11-23T01:36:37.045Z,-1.25
2023-11-23T01:39:06.362Z,-1.30
2023-11-23T01:41:35.816Z,-1.34
2023-11-23T01:44:07.409Z,-1.35
2023-11-23T01:46:35.962Z,-1.25
2023-11-23T01:49:06.797Z,-1.24
2023-11-23T01:51:36.213Z,-1.34
2023-11-23T01:54:05.620Z,-1.34
2023-11-23T01:56:34.352Z,-1.37
2023-11-23T01:59:02.953Z,-1.37
2023-11-23T02:01:35.463Z,-1.42
2023-11-23T02:04:05.539Z,-1.41
2023-11-23T02:06:34.784Z,-1.37
2023-11-23T02:09:06.839Z,-1.31
2023-11-23T02:11:35.746Z,-1.28
2023-11-23T02:14:08.079Z,-1.22
2023-11-23T02:16:40.333Z,-1.18
2023-11-23T02:19:10.321Z,-1.22
2023-11-23T02:21:39.050Z,-1.34
2023-11-23T02:24:12.813Z,-1.31
2023-11-23T02:26:42.005Z,-1.22
2023-11-23T02:29:10.545Z,-1.18
2023-11-23T02:31:41.901Z,-1.28
2023-11-23T02:34:10.757Z,-1.21
2023-11-23T02:36:39.317Z,-1.14
2023-11-23T02:39:07.778Z,-1.22
2023-11-23T02:41:37.679Z,-1.18
2023-11-23T02:44:06.610Z,-1.22
2023-11-23T02:46:35.137Z,-1.21
2023-11-23T02:49:03.778Z,-1.22
2023-11-23T02:51:34.013Z,-1.31
2023-11-23T02:54:02.896Z,-1.25
2023-11-23T02:56:31.364Z,-1.27
2023-11-23T02:59:01.970Z,-1.24
2023-11-23T03:01:30.512Z,-1.24
2023-11-23T03:03:59.223Z,-1.22
2023-11-23T03:06:28.904Z,-1.13
2023-11-23T03:08:57.440Z,-1.11
2023-11-23T03:11:30.384Z,-1.08
2023-11-23T03:14:00.864Z,-1.11
2023-11-23T03:16:29.350Z,-1.21
2023-11-23T03:19:00.985Z,-1.25
2023-11-23T03:21:29.883Z,-1.13
2023-11-23T03:23:58.672Z,-1.08
2023-11-23T03:26:27.681Z,-1.22
2023-11-23T03:28:56.388Z,-1.31
2023-11-23T03:31:26.258Z,-1.32
2023-11-23T03:33:55.313Z,-1.38
2023-11-23T03:36:25.181Z,-1.38
2023-11-23T03:38:53.975Z,-1.24
2023-11-23T03:41:24.297Z,-1.24
2023-11-23T03:43:53.887Z,-1.42
2023-11-23T03:46:23.387Z,-1.28
2023-11-23T03:48:54.025Z,-1.34
2023-11-23T03:51:22.400Z,-1.41
2023-11-23T03:53:51.327Z,-1.51
2023-11-23T03:56:20.367Z,-1.61
2023-11-23T03:58:49.001Z,-1.62
2023-11-23T04:01:18.315Z,-1.69
2023-11-23T04:03:47.932Z,-1.72
2023-11-23T04:06:19.353Z,-1.73
2023-11-23T04:08:49.732Z,-1.82
2023-11-23T04:11:18.581Z,-1.85
2023-11-23T04:13:47.823Z,-1.61
2023-11-23T04:16:16.673Z,-1.49
2023-11-23T04:18:46.048Z,-1.48
2023-11-23T04:21:15.113Z,-1.52
2023-11-23T04:23:45.731Z,-1.45
2023-11-23T04:26:14.512Z,-1.52
2023-11-23T04:28:43.477Z,-1.55
2023-11-23T04:31:11.806Z,-1.66
2023-11-23T04:33:40.840Z,-1.97
2023-11-23T04:36:12.264Z,-1.89
2023-11-23T04:38:42.269Z,-1.73
2023-11-23T04:41:14.341Z,-1.73
2023-11-23T04:43:44.216Z,-1.59
2023-11-23T04:46:12.639Z,-1.68
2023-11-23T04:48:41.351Z,-1.66
2023-11-23T04:51:10.299Z,-1.52
2023-11-23T04:53:38.780Z,-1.54
2023-11-23T04:56:08.505Z,-1.47
2023-11-23T04:58:38.155Z,-1.40
2023-11-23T05:01:08.931Z,-1.42
2023-11-23T05:03:37.749Z,-1.41
2023-11-23T05:06:06.330Z,-1.32
2023-11-23T05:08:37.077Z,-1.30
2023-11-23T05:11:06.174Z,-1.28
2023-11-23T05:13:35.573Z,-1.27
2023-11-23T05:16:07.017Z,-1.32
2023-11-23T05:18:37.631Z,-1.34
2023-11-23T05:21:06.713Z,-1.51
2023-11-23T05:23:35.028Z,-1.48
2023-11-23T05:26:05.554Z,-1.38
2023-11-23T05:28:36.429Z,-1.34
2023-11-23T05:31:06.708Z,-1.25
2023-11-23T05:33:35.707Z,-1.40
2023-11-23T05:36:05.625Z,-1.56
2023-11-23T05:38:34.132Z,-1.56
2023-11-23T05:41:02.393Z,-1.65
2023-11-23T05:43:33.076Z,-1.44
2023-11-23T05:46:01.250Z,-1.28
2023-11-23T05:48:31.419Z,-1.11
2023-11-23T05:51:00.232Z,-1.03
2023-11-23T05:53:28.750Z,-1.01
2023-11-23T05:55:57.755Z,-0.86
2023-11-23T05:58:28.263Z,-0.84
2023-11-23T06:01:03.822Z,-0.84
2023-11-23T06:03:40.555Z,-0.92
2023-11-23T06:06:10.471Z,-0.99
2023-11-23T06:08:42.793Z,-0.99
2023-11-23T06:11:11.498Z,-0.94
2023-11-23T06:13:41.055Z,-0.86
2023-11-23T06:16:10.288Z,-0.83
2023-11-23T06:18:40.099Z,-0.69
2023-11-23T06:21:10.903Z,-0.69
2023-11-23T06:23:39.341Z,-0.59
2023-11-23T06:26:11.569Z,-0.61
2023-11-23T06:28:40.263Z,-0.53
2023-11-23T06:31:08.633Z,-0.53
2023-11-23T06:33:37.026Z,-0.45
2023-11-23T06:36:12.562Z,-0.36
2023-11-23T06:38:41.449Z,-0.29
2023-11-23T06:41:20.535Z,-0.22
2023-11-23T06:43:51.215Z,-0.14
2023-11-23T06:46:22.457Z,-0.08
2023-11-23T06:48:51.275Z,-0.05
2023-11-23T06:51:23.010Z,0.00
2023-11-23T06:53:51.380Z,0.07
2023-11-23T06:56:22.715Z,0.16
2023-11-23T06:58:52.576Z,0.21
2023-11-23T07:01:22.746Z,0.24
2023-11-23T07:03:51.832Z,0.33
2023-11-23T07:06:25.343Z,0.38
2023-11-23T07:08:55.018Z,0.43
2023-11-23T07:11:24.130Z,0.55
2023-11-23T07:13:53.399Z,0.58
2023-11-23T07:16:22.785Z,0.64
2023-11-23T07:18:54.388Z,0.65
2023-11-23T07:21:26.057Z,0.71
2023-11-23T07:23:55.401Z,0.78
2023-11-23T07:26:23.988Z,0.82
2023-11-23T07:28:52.743Z,0.95
2023-11-23T07:31:21.328Z,0.93
2023-11-23T07:33:51.321Z,0.99
2023-11-23T07:36:19.957Z,1.07
2023-11-23T07:38:51.092Z,1.09
2023-11-23T07:41:19.378Z,1.17
2023-11-23T07:43:48.625Z,1.36
2023-11-23T07:46:17.238Z,1.29
2023-11-23T07:48:52.075Z,1.44
2023-11-23T07:51:21.657Z,1.39
2023-11-23T07:53:51.878Z,1.46
2023-11-23T07:56:22.032Z,1.50
2023-11-23T07:58:53.807Z,1.47
2023-11-23T08:01:22.255Z,1.47
2023-11-23T08:03:52.492Z,1.48
2023-11-23T08:06:21.232Z,1.60
2023-11-23T08:08:51.248Z,1.61
2023-11-23T08:11:19.698Z,1.51
2023-11-23T08:13:48.127Z,1.37
2023-11-23T08:16:18.725Z,1.40
2023-11-23T08:18:50.282Z,1.40
2023-11-23T08:21:19.373Z,1.41
2023-11-23T08:23:48.563Z,1.54
2023-11-23T08:26:18.372Z,1.58
2023-11-23T08:28:46.924Z,1.70
2023-11-23T08:31:15.550Z,1.85
2023-11-23T08:33:44.873Z,1.82
2023-11-23T08:36:17.293Z,1.78
2023-11-23T08:38:45.770Z,1.92
2023-11-23T08:41:14.502Z,2.01
2023-11-23T08:43:44.556Z,2.13
2023-11-23T08:46:13.252Z,2.22
2023-11-23T08:48:43.363Z,2.46
2023-11-23T08:51:12.845Z,2.37
2023-11-23T08:53:41.081Z,2.54
2023-11-23T08:56:09.717Z,2.64
2023-11-23T08:58:38.233Z,2.84
2023-11-23T09:01:08.861Z,2.81
2023-11-23T09:03:37.390Z,3.04
2023-11-23T09:06:06.600Z,3.22
2023-11-23T09:08:35.179Z,3.15
2023-11-23T09:11:03.796Z,3.22
2023-11-23T09:13:33.649Z,3.43
2023-11-23T09:16:02.595Z,3.53
2023-11-23T09:18:33.495Z,3.60
2023-11-23T09:21:02.200Z,3.85
2023-11-23T09:23:36.196Z,3.73
2023-11-23T09:26:05.929Z,3.83
2023-11-23T09:28:34.846Z,3.87
2023-11-23T09:31:04.003Z,3.73
2023-11-23T09:33:34.105Z,3.74
2023-11-23T09:36:03.812Z,3.74
2023-11-23T09:38:33.027Z,3.73
2023-11-23T09:41:01.439Z,3.83
2023-11-23T09:43:31.377Z,3.93
2023-11-23T09:46:00.464Z,3.94
2023-11-23T09:48:30.379Z,3.90
2023-11-23T09:51:00.444Z,3.84
2023-11-23T09:53:29.725Z,3.87
2023-11-23T09:55:58.280Z,3.80
2023-11-23T09:58:26.965Z,3.78
2023-11-23T10:00:55.462Z,3.81
2023-11-23T10:03:26.513Z,3.83
2023-11-23T10:05:57.834Z,3.81
2023-11-23T10:08:32.061Z,3.90
2023-11-23T10:11:04.286Z,4.04
2023-11-23T10:13:32.619Z,4.22
2023-11-23T10:16:05.768Z,4.33
2023-11-23T10:18:38.353Z,4.16
2023-11-23T10:21:06.806Z,3.98
2023-11-23T10:23:36.714Z,3.88
2023-11-23T10:26:05.250Z,3.85
2023-11-23T10:28:33.758Z,3.94
2023-11-23T10:31:05.390Z,3.85
2023-11-23T10:33:36.630Z,3.81
2023-11-23T10:36:06.927Z,3.90
2023-11-23T10:38:44.083Z,4.05
2023-11-23T10:41:16.002Z,4.32
2023-11-23T10:43:47.010Z,4.45
2023-11-23T10:46:17.179Z,4.56
2023-11-23T10:48:46.913Z,4.54
2023-11-23T10:51:17.504Z,4.74
2023-11-23T10:53:47.348Z,4.83
2023-11-23T10:56:22.155Z,4.85
2023-11-23T10:58:55.352Z,5.04
2023-11-23T11:01:27.197Z,4.59
2023-11-23T11:04:10.705Z,4.33
2023-11-23T11:07:01.017Z,4.81
2023-11-23T11:09:41.596Z,5.17
2023-11-23T11:12:23.784Z,4.63
2023-11-23T11:15:32.961Z,4.91
2023-11-23T11:21:48.352Z,5.14
2023-11-23T11:24:55.091Z,5.24
2023-11-23T11:27:31.502Z,5.10
2023-11-23T11:30:04.761Z,5.40
2023-11-23T11:33:19.545Z,5.49
2023-11-23T11:35:50.059Z,5.59
2023-11-23T11:38:18.692Z,5.48
2023-11-23T11:40:52.439Z,5.50
2023-11-23T11:43:21.080Z,5.48
2023-11-23T11:45:49.857Z,5.59
2023-11-23T11:48:21.041Z,5.42
2023-11-23T11:50:57.215Z,5.73
2023-11-23T11:53:26.411Z,5.67
2023-11-23T11:55:57.713Z,5.63
2023-11-23T11:58:30.552Z,5.62
2023-11-23T12:00:58.924Z,5.85
2023-11-23T12:03:27.906Z,5.93
2023-11-23T12:05:56.682Z,6.16
2023-11-23T12:08:26.312Z,6.10
2023-11-23T12:10:54.495Z,6.20
2023-11-23T12:13:28.103Z,6.17
2023-11-23T12:15:56.409Z,6.13
2023-11-23T12:18:32.764Z,6.21
2023-11-23T12:21:01.793Z,6.21
2023-11-23T12:23:30.483Z,6.41
2023-11-23T12:25:58.787Z,6.36
2023-11-23T12:28:32.042Z,6.53
2023-11-23T12:31:00.469Z,6.59
2023-11-23T12:33:29.548Z,6.52
2023-11-23T12:35:58.873Z,6.44
2023-11-23T12:38:27.706Z,6.48
2023-11-23T12:40:56.469Z,6.36
2023-11-23T12:43:25.120Z,6.29
2023-11-23T12:45:55.645Z,6.46
2023-11-23T12:48:25.373Z,6.56
2023-11-23T12:50:54.164Z,6.42
2023-11-23T12:53:23.190Z,6.55
2023-11-23T12:55:51.724Z,6.71
2023-11-23T12:58:21.950Z,6.83
2023-11-23T13:00:51.689Z,6.69
2023-11-23T13:03:23.881Z,6.71
2023-11-23T13:05:54.678Z,6.59
2023-11-23T13:08:23.415Z,6.68
2023-11-23T13:10:53.079Z,6.90
2023-11-23T13:13:21.638Z,6.96
2023-11-23T13:15:50.094Z,7.11
2023-11-23T13:18:18.970Z,7.08
2023-11-23T13:20:49.243Z,6.99
2023-11-23T13:23:18.037Z,6.92
2023-11-23T13:25:47.725Z,6.85
2023-11-23T13:28:16.590Z,6.80
2023-11-23T13:30:46.461Z,6.86
2023-11-23T13:33:21.985Z,6.90
2023-11-23T13:35:51.976Z,6.86
2023-11-23T13:38:20.397Z,6.82
2023-11-23T13:40:50.087Z,6.89
2023-11-23T13:43:20.325Z,6.89
2023-11-23T13:45:52.344Z,6.77
2023-11-23T13:48:21.091Z,6.86
2023-11-23T13:50:51.490Z,6.80
2023-11-23T13:53:20.274Z,6.56
2023-11-23T13:55:51.353Z,6.38
2023-11-23T13:58:20.730Z,6.25
2023-11-23T14:00:51.018Z,6.07
2023-11-23T14:03:20.324Z,6.00
2023-11-23T14:05:49.772Z,5.93
2023-11-23T14:08:22.221Z,5.80
2023-11-23T14:10:51.170Z,5.73
2023-11-23T14:13:22.604Z,5.73
2023-11-23T14:15:52.022Z,5.53
2023-11-23T14:18:22.398Z,5.46
2023-11-23T14:20:51.541Z,5.48
2023-11-23T14:23:22.082Z,5.38
2023-11-23T14:25:51.566Z,5.18
2023-11-23T14:28:21.585Z,5.22
2023-11-23T14:30:53.863Z,5.14
2023-11-23T14:33:23.531Z,5.12
2023-11-23T14:35:55.160Z,5.05
2023-11-23T14:38:26.652Z,5.02
2023-11-23T14:40:56.615Z,4.98
2023-11-23T14:43:28.707Z,4.85
2023-11-23T14:45:59.753Z,4.84
2023-11-23T14:48:31.325Z,4.74
2023-11-23T14:51:00.974Z,4.76
2023-11-23T14:53:31.737Z,4.81
2023-11-23T14:56:01.788Z,4.87
2023-11-23T14:58:32.332Z,4.77
2023-11-23T15:01:01.538Z,4.77
2023-11-23T15:03:31.426Z,4.74
2023-11-23T15:06:03.287Z,4.67
2023-11-23T15:08:33.721Z,4.66
2023-11-23T15:11:02.955Z,4.59
2023-11-23T15:13:38.257Z,4.52
2023-11-23T15:16:09.982Z,4.48
2023-11-23T15:18:39.345Z,4.48
2023-11-23T15:21:09.278Z,4.42
2023-11-23T15:23:40.113Z,4.29
2023-11-23T15:26:12.009Z,4.46
2023-11-23T15:28:40.819Z,4.41
2023-11-23T15:31:12.022Z,4.36
2023-11-23T15:33:42.529Z,4.29
2023-11-23T15:36:12.787Z,4.29
2023-11-23T15:38:43.953Z,4.22
2023-11-23T15:41:13.876Z,4.16
2023-11-23T15:43:43.688Z,4.25
2023-11-23T15:46:14.451Z,4.08
2023-11-23T15:48:44.370Z,4.19
2023-11-23T15:51:16.144Z,4.12
2023-11-23T15:53:48.512Z,4.09
2023-11-23T15:56:18.298Z,4.11
2023-11-23T15:58:47.537Z,4.08
2023-11-23T16:01:16.747Z,4.11
2023-11-23T16:03:46.149Z,4.09
2023-11-23T16:06:16.190Z,4.05
2023-11-23T16:08:47.279Z,4.01
2023-11-23T16:11:16.407Z,4.01
2023-11-23T16:13:47.720Z,3.91
2023-11-23T16:16:17.055Z,3.94
2023-11-23T16:18:46.462Z,3.91
2023-11-23T16:21:15.638Z,3.85
2023-11-23T16:23:46.230Z,3.84
2023-11-23T16:26:15.167Z,3.81
2023-11-23T16:28:44.386Z,3.74
2023-11-23T16:31:13.710Z,3.71
2023-11-23T16:33:43.118Z,3.64
2023-11-23T16:36:26.049Z,3.59
2023-11-23T16:39:01.100Z,3.59
2023-11-23T16:41:30.353Z,3.60
2023-11-23T16:43:59.704Z,3.56
2023-11-23T16:46:28.685Z,3.52
2023-11-23T16:48:58.097Z,3.42
2023-11-23T16:51:27.789Z,3.36
2023-11-23T16:53:57.348Z,3.29
2023-11-23T16:56:28.113Z,3.26
2023-11-23T16:58:57.026Z,3.13
2023-11-23T17:01:26.621Z,3.19
2023-11-23T17:03:57.266Z,3.18
2023-11-23T17:06:26.605Z,3.09
2023-11-23T17:08:55.469Z,3.16
2023-11-23T17:11:24.579Z,3.16
2023-11-23T17:13:55.828Z,3.09
2023-11-23T17:16:25.200Z,3.09
2023-11-23T17:18:55.919Z,3.20
2023-11-23T17:21:26.100Z,3.23
2023-11-23T17:23:57.544Z,3.22
2023-11-23T17:26:27.041Z,3.32
2023-11-23T17:28:57.914Z,3.27
2023-11-23T17:31:27.322Z,3.20
2023-11-23T17:33:56.498Z,3.25
2023-11-23T17:36:25.937Z,3.19
2023-11-23T17:38:57.851Z,3.12
2023-11-23T17:41:28.310Z,3.05
2023-11-23T17:43:58.629Z,3.09
2023-11-23T17:46:27.941Z,3.08
2023-11-23T17:48:57.855Z,3.04
2023-11-23T17:51:28.488Z,3.09
2023-11-23T17:53:58.052Z,3.06
2023-11-23T17:56:27.194Z,3.05
2023-11-23T17:59:05.077Z,3.01
2023-11-23T18:01:47.537Z,3.09
2023-11-23T18:04:16.962Z,2.98
2023-11-23T18:06:47.005Z,2.87
2023-11-23T18:09:16.623Z,2.91
2023-11-23T18:11:46.508Z,2.83
2023-11-23T18:14:16.350Z,2.87
2023-11-23T18:16:48.166Z,2.83
2023-11-23T18:19:16.614Z,2.83
2023-11-23T18:21:46.938Z,2.78
2023-11-23T18:24:17.083Z,2.76
2023-11-23T18:26:47.390Z,2.76
2023-11-23T18:29:16.428Z,2.78
2023-11-23T18:31:48.222Z,2.71
2023-11-23T18:34:17.475Z,2.74
2023-11-23T18:36:47.692Z,2.74
2023-11-23T18:39:17.224Z,2.70
2023-11-23T18:41:46.778Z,2.60
2023-11-23T18:44:16.941Z,2.47
2023-11-23T18:46:47.142Z,2.53
2023-11-23T18:49:16.168Z,2.51
2023-11-23T18:51:45.678Z,2.48
2023-11-23T18:54:16.072Z,2.43
2023-11-23T18:56:47.929Z,2.43
2023-11-23T18:59:16.866Z,2.46
2023-11-23T19:01:47.947Z,2.46
2023-11-23T19:04:17.481Z,2.44
2023-11-23T19:06:50.205Z,2.46
2023-11-23T19:09:20.694Z,2.50
2023-11-23T19:11:50.846Z,2.54
2023-11-23T19:14:22.763Z,2.56
2023-11-23T19:16:53.500Z,2.60
2023-11-23T19:19:23.554Z,2.53
2023-11-23T19:21:52.853Z,2.57
2023-11-23T19:24:23.232Z,2.54
2023-11-23T19:26:53.323Z,2.51
2023-11-23T19:29:31.865Z,2.43
2023-11-23T19:32:12.882Z,2.46
2023-11-23T19:34:43.585Z,2.37
2023-11-23T19:37:14.396Z,2.27
2023-11-23T19:39:44.691Z,2.25
2023-11-23T19:42:17.072Z,2.18
2023-11-23T19:44:47.597Z,2.06
2023-11-23T19:47:20.250Z,2.08
2023-11-23T19:49:50.142Z,2.09
2023-11-23T19:52:24.042Z,2.03
2023-11-23T19:54:54.042Z,1.99
2023-11-23T19:57:24.567Z,2.05
2023-11-23T19:59:53.850Z,2.02
2023-11-23T20:02:25.688Z,1.99
2023-11-23T20:04:55.213Z,1.97
2023-11-23T20:07:24.349Z,1.98
2023-11-23T20:09:54.070Z,1.94
2023-11-23T20:12:23.227Z,1.95
2023-11-23T20:14:52.223Z,2.03
2023-11-23T20:17:21.556Z,2.06
2023-11-23T20:19:53.368Z,2.12
2023-11-23T20:22:24.386Z,2.12
2023-11-23T20:24:53.413Z,2.18
2023-11-23T20:27:23.744Z,2.19
2023-11-23T20:29:52.906Z,2.26
2023-11-23T20:32:21.814Z,2.33
2023-11-23T20:34:53.428Z,2.29
2023-11-23T20:37:22.472Z,2.34
2023-11-23T20:39:51.575Z,2.27
2023-11-23T20:42:21.325Z,2.25
2023-11-23T20:44:50.311Z,2.19
2023-11-23T20:47:21.305Z,2.12
2023-11-23T20:49:52.879Z,2.13
2023-11-23T20:52:26.041Z,2.12
2023-11-23T20:54:55.979Z,2.03
2023-11-23T20:57:26.192Z,2.05
2023-11-23T20:59:56.022Z,2.02
2023-11-23T21:02:26.093Z,2.05
2023-11-23T21:04:57.700Z,2.08
2023-11-23T21:07:27.332Z,2.12
2023-11-23T21:10:00.186Z,2.15
2023-11-23T21:12:30.428Z,2.03
2023-11-23T21:14:59.942Z,2.01
2023-11-23T21:17:29.876Z,1.99
2023-11-23T21:20:01.668Z,1.94
2023-11-23T21:22:30.724Z,1.89
2023-11-23T21:24:59.797Z,1.89
2023-11-23T21:27:38.252Z,1.86
2023-11-23T21:30:09.564Z,1.85
2023-11-23T21:32:39.802Z,1.86
2023-11-23T21:35:10.217Z,1.78
2023-11-23T21:37:39.394Z,1.70
2023-11-23T21:40:12.044Z,1.62
2023-11-23T21:42:41.238Z,1.62
2023-11-23T21:45:10.699Z,1.57
2023-11-23T21:47:40.091Z,1.48
2023-11-23T21:50:12.474Z,1.44
2023-11-23T21:52:42.234Z,1.50
2023-11-23T21:55:11.632Z,1.44
2023-11-23T21:57:41.467Z,1.44
2023-11-23T22:00:13.057Z,1.41
2023-11-23T22:02:42.964Z,1.40
2023-11-23T22:05:12.796Z,1.34
2023-11-23T22:07:41.861Z,1.26
2023-11-23T22:10:10.678Z,1.29
2023-11-23T22:12:39.639Z,1.29
2023-11-23T22:15:10.548Z,1.27
2023-11-23T22:17:39.473Z,1.29
2023-11-23T22:20:10.700Z,1.24
2023-11-23T22:22:43.121Z,1.22
2023-11-23T22:25:13.981Z,1.19
2023-11-23T22:27:44.410Z,1.15
2023-11-23T22:30:14.358Z,1.15
2023-11-23T22:32:46.583Z,1.12
2023-11-23T22:35:16.268Z,1.04
2023-11-23T22:37:46.634Z,1.00
2023-11-23T22:40:16.198Z,0.92
2023-11-23T22:42:44.919Z,0.97
2023-11-23T22:45:14.240Z,0.93
2023-11-23T22:47:42.950Z,0.91
2023-11-23T22:50:12.217Z,0.89
2023-11-23T22:52:41.468Z,0.85
2023-11-23T22:55:11.468Z,0.91
2023-11-23T22:57:40.199Z,0.85
2023-11-23T23:00:25.621Z,0.85
2023-11-23T23:02:54.552Z,0.82
2023-11-23T23:05:26.373Z,0.76
2023-11-23T23:07:58.178Z,0.74
2023-11-23T23:10:29.604Z,0.69
2023-11-23T23:12:58.230Z,0.74
2023-11-23T23:15:27.153Z,0.76
2023-11-23T23:17:58.659Z,0.74
2023-11-23T23:20:27.450Z,0.66
2023-11-23T23:22:58.031Z,0.65
2023-11-23T23:25:26.550Z,0.58
2023-11-23T23:27:57.289Z,0.64
2023-11-23T23:30:27.661Z,0.64
2023-11-23T23:32:56.204Z,0.61
2023-11-23T23:35:26.434Z,0.62
2023-11-23T23:37:55.217Z,0.54
2023-11-23T23:40:25.707Z,0.61
2023-11-23T23:42:55.073Z,0.50
2023-11-23T23:45:25.822Z,0.51
2023-11-23T23:47:55.782Z,0.54
2023-11-23T23:50:26.760Z,0.43
2023-11-23T23:52:56.247Z,0.43
2023-11-23T23:55:24.729Z,0.36
2023-11-23T23:57:53.007Z,0.17
